sensor_id;sensor_type;location;lat;lon;timestamp;P1;durP1;ratioP1;P2;durP2;ratioP2
3401;SDS011;1714;49.756;8.610;2024-03-23T01:02:46;13.98;;;8.93;;
3401;SDS011;1714;49.756;8.610;2024-03-23T01:13:19;12.90;;;8.25;;
3401;SDS011;1714;49.756;8.610;2024-03-23T01:23:55;16.27;;;8.05;;
3401;SDS011;1714;49.756;8.610;2024-03-23T01:34:28;11.80;;;8.40;;
3401;SDS011;1714;49.756;8.610;2024-03-23T01:45:02;15.82;;;8.25;;
3401;SDS011;1714;49.756;8.610;2024-03-23T02:06:15;17.98;;;10.15;;
3401;SDS011;1714;49.756;8.610;2024-03-23T02:16:49;12.43;;;8.38;;
3401;SDS011;1714;49.756;8.610;2024-03-23T02:27:22;14.68;;;9.32;;
3401;SDS011;1714;49.756;8.610;2024-03-23T02:37:57;12.70;;;8.93;;
3401;SDS011;1714;49.756;8.610;2024-03-23T02:48:32;12.43;;;9.23;;
3401;SDS011;1714;49.756;8.610;2024-03-23T02:59:06;16.85;;;8.95;;
3401;SDS011;1714;49.756;8.610;2024-03-23T03:09:40;14.98;;;8.48;;
3401;SDS011;1714;49.756;8.610;2024-03-23T03:20:14;14.90;;;9.60;;
3401;SDS011;1714;49.756;8.610;2024-03-23T03:30:49;16.58;;;10.43;;
3401;SDS011;1714;49.756;8.610;2024-03-23T03:41:22;17.92;;;12.10;;
3401;SDS011;1714;49.756;8.610;2024-03-23T03:51:56;23.35;;;14.20;;
3401;SDS011;1714;49.756;8.610;2024-03-23T04:02:29;21.80;;;12.85;;
3401;SDS011;1714;49.756;8.610;2024-03-23T04:13:03;23.95;;;14.30;;
3401;SDS011;1714;49.756;8.610;2024-03-23T04:23:37;23.77;;;15.32;;
3401;SDS011;1714;49.756;8.610;2024-03-23T04:34:11;26.35;;;15.35;;
3401;SDS011;1714;49.756;8.610;2024-03-23T04:44:46;25.67;;;15.32;;
3401;SDS011;1714;49.756;8.610;2024-03-23T04:55:19;15.88;;;9.45;;
3401;SDS011;1714;49.756;8.610;2024-03-23T05:05:55;9.85;;;6.35;;
3401;SDS011;1714;49.756;8.610;2024-03-23T05:16:29;7.80;;;4.20;;
3401;SDS011;1714;49.756;8.610;2024-03-23T05:27:03;3.80;;;2.25;;
3401;SDS011;1714;49.756;8.610;2024-03-23T05:37:37;2.47;;;1.70;;
3401;SDS011;1714;49.756;8.610;2024-03-23T05:48:11;2.78;;;2.15;;
3401;SDS011;1714;49.756;8.610;2024-03-23T05:58:45;2.30;;;2.10;;
3401;SDS011;1714;49.756;8.610;2024-03-23T06:09:19;2.38;;;1.88;;
3401;SDS011;1714;49.756;8.610;2024-03-23T06:19:53;2.05;;;1.30;;
3401;SDS011;1714;49.756;8.610;2024-03-23T06:30:26;0.90;;;0.80;;
3401;SDS011;1714;49.756;8.610;2024-03-23T06:41:04;1.17;;;0.80;;
3401;SDS011;1714;49.756;8.610;2024-03-23T06:51:40;0.82;;;0.52;;
3401;SDS011;1714;49.756;8.610;2024-03-23T07:02:14;1.23;;;0.82;;
3401;SDS011;1714;49.756;8.610;2024-03-23T07:12:49;1.00;;;0.55;;
3401;SDS011;1714;49.756;8.610;2024-03-23T07:23:22;4.47;;;0.95;;
3401;SDS011;1714;49.756;8.610;2024-03-23T07:33:59;1.20;;;1.10;;
3401;SDS011;1714;49.756;8.610;2024-03-23T07:44:33;3.83;;;1.50;;
3401;SDS011;1714;49.756;8.610;2024-03-23T07:55:07;2.88;;;1.50;;
3401;SDS011;1714;49.756;8.610;2024-03-23T08:05:41;3.85;;;1.60;;
3401;SDS011;1714;49.756;8.610;2024-03-23T08:16:15;3.95;;;2.47;;
3401;SDS011;1714;49.756;8.610;2024-03-23T08:26:48;9.02;;;4.40;;
3401;SDS011;1714;49.756;8.610;2024-03-23T08:37:22;4.30;;;2.40;;
3401;SDS011;1714;49.756;8.610;2024-03-23T08:47:57;9.05;;;3.13;;
3401;SDS011;1714;49.756;8.610;2024-03-23T08:58:31;5.45;;;3.03;;
3401;SDS011;1714;49.756;8.610;2024-03-23T09:09:09;6.70;;;3.00;;
3401;SDS011;1714;49.756;8.610;2024-03-23T09:19:43;6.05;;;2.72;;
3401;SDS011;1714;49.756;8.610;2024-03-23T09:30:17;9.50;;;2.88;;
3401;SDS011;1714;49.756;8.610;2024-03-23T09:40:52;10.07;;;2.65;;
3401;SDS011;1714;49.756;8.610;2024-03-23T09:51:26;9.45;;;3.33;;
3401;SDS011;1714;49.756;8.610;2024-03-23T10:02:03;9.23;;;2.20;;
3401;SDS011;1714;49.756;8.610;2024-03-23T10:12:39;6.50;;;2.63;;
3401;SDS011;1714;49.756;8.610;2024-03-23T10:23:23;9.32;;;2.25;;
3401;SDS011;1714;49.756;8.610;2024-03-23T10:33:57;4.05;;;1.95;;
3401;SDS011;1714;49.756;8.610;2024-03-23T10:44:32;8.90;;;2.15;;
3401;SDS011;1714;49.756;8.610;2024-03-23T10:55:06;6.03;;;2.10;;
3401;SDS011;1714;49.756;8.610;2024-03-23T11:05:48;6.90;;;3.05;;
3401;SDS011;1714;49.756;8.610;2024-03-23T11:16:26;5.32;;;1.30;;
3401;SDS011;1714;49.756;8.610;2024-03-23T11:27:15;6.28;;;1.60;;
3401;SDS011;1714;49.756;8.610;2024-03-23T11:38:00;6.60;;;1.35;;
3401;SDS011;1714;49.756;8.610;2024-03-23T11:48:54;1.75;;;0.98;;
3401;SDS011;1714;49.756;8.610;2024-03-23T11:59:35;2.85;;;0.80;;
3401;SDS011;1714;49.756;8.610;2024-03-23T12:10:15;3.25;;;0.82;;
3401;SDS011;1714;49.756;8.610;2024-03-23T12:20:53;3.47;;;0.75;;
3401;SDS011;1714;49.756;8.610;2024-03-23T12:31:26;3.95;;;1.25;;
3401;SDS011;1714;49.756;8.610;2024-03-23T12:42:00;2.42;;;1.50;;
3401;SDS011;1714;49.756;8.610;2024-03-23T12:52:38;6.27;;;2.23;;
3401;SDS011;1714;49.756;8.610;2024-03-23T13:03:13;5.15;;;1.95;;
3401;SDS011;1714;49.756;8.610;2024-03-23T13:13:48;5.72;;;2.05;;
3401;SDS011;1714;49.756;8.610;2024-03-23T13:24:23;2.65;;;1.38;;
3401;SDS011;1714;49.756;8.610;2024-03-23T13:35:00;1.20;;;0.70;;
3401;SDS011;1714;49.756;8.610;2024-03-23T13:45:34;1.38;;;0.40;;
3401;SDS011;1714;49.756;8.610;2024-03-23T13:56:09;0.52;;;0.40;;
3401;SDS011;1714;49.756;8.610;2024-03-23T14:06:43;1.25;;;0.47;;
3401;SDS011;1714;49.756;8.610;2024-03-23T14:17:20;1.35;;;0.57;;
3401;SDS011;1714;49.756;8.610;2024-03-23T14:27:53;0.52;;;0.40;;
3401;SDS011;1714;49.756;8.610;2024-03-23T14:38:28;3.45;;;0.70;;
3401;SDS011;1714;49.756;8.610;2024-03-23T14:49:01;0.85;;;0.43;;
3401;SDS011;1714;49.756;8.610;2024-03-23T14:59:36;2.30;;;0.30;;
3401;SDS011;1714;49.756;8.610;2024-03-23T15:10:13;2.05;;;0.45;;
3401;SDS011;1714;49.756;8.610;2024-03-23T15:20:59;2.70;;;0.57;;
3401;SDS011;1714;49.756;8.610;2024-03-23T15:31:41;0.82;;;0.47;;
3401;SDS011;1714;49.756;8.610;2024-03-23T15:42:16;0.82;;;0.50;;
3401;SDS011;1714;49.756;8.610;2024-03-23T15:52:49;2.80;;;0.50;;
3401;SDS011;1714;49.756;8.610;2024-03-23T16:03:23;0.70;;;0.35;;
3401;SDS011;1714;49.756;8.610;2024-03-23T16:13:57;1.00;;;0.65;;
3401;SDS011;1714;49.756;8.610;2024-03-23T16:24:31;1.00;;;0.50;;
3401;SDS011;1714;49.756;8.610;2024-03-23T16:35:04;3.03;;;0.65;;
3401;SDS011;1714;49.756;8.610;2024-03-23T16:45:38;1.33;;;0.50;;
3401;SDS011;1714;49.756;8.610;2024-03-23T16:56:11;1.95;;;0.68;;
3401;SDS011;1714;49.756;8.610;2024-03-23T17:06:46;1.13;;;0.55;;
3401;SDS011;1714;49.756;8.610;2024-03-23T17:17:19;0.65;;;0.50;;
3401;SDS011;1714;49.756;8.610;2024-03-23T17:27:53;1.23;;;0.60;;
3401;SDS011;1714;49.756;8.610;2024-03-23T17:38:26;5.68;;;0.60;;
3401;SDS011;1714;49.756;8.610;2024-03-23T17:49:00;1.35;;;0.68;;
3401;SDS011;1714;49.756;8.610;2024-03-23T17:59:34;2.10;;;0.85;;
3401;SDS011;1714;49.756;8.610;2024-03-23T18:10:07;3.63;;;0.88;;
3401;SDS011;1714;49.756;8.610;2024-03-23T18:20:42;3.95;;;0.50;;
3401;SDS011;1714;49.756;8.610;2024-03-23T18:31:15;4.07;;;1.00;;
3401;SDS011;1714;49.756;8.610;2024-03-23T18:41:49;3.53;;;0.80;;
3401;SDS011;1714;49.756;8.610;2024-03-23T18:52:23;3.30;;;0.80;;
3401;SDS011;1714;49.756;8.610;2024-03-23T19:02:56;1.30;;;0.60;;
3401;SDS011;1714;49.756;8.610;2024-03-23T19:13:30;2.10;;;0.98;;
3401;SDS011;1714;49.756;8.610;2024-03-23T19:24:04;3.50;;;1.33;;
3401;SDS011;1714;49.756;8.610;2024-03-23T19:34:38;3.50;;;1.05;;
3401;SDS011;1714;49.756;8.610;2024-03-23T19:45:11;4.97;;;0.95;;
3401;SDS011;1714;49.756;8.610;2024-03-23T19:55:52;2.63;;;0.95;;
3401;SDS011;1714;49.756;8.610;2024-03-23T20:06:29;4.88;;;1.00;;
3401;SDS011;1714;49.756;8.610;2024-03-23T20:17:03;4.28;;;1.13;;
3401;SDS011;1714;49.756;8.610;2024-03-23T20:27:37;1.98;;;0.98;;
3401;SDS011;1714;49.756;8.610;2024-03-23T20:38:10;1.65;;;1.00;;
3401;SDS011;1714;49.756;8.610;2024-03-23T20:48:43;4.43;;;1.30;;
3401;SDS011;1714;49.756;8.610;2024-03-23T20:59:22;5.15;;;1.23;;
3401;SDS011;1714;49.756;8.610;2024-03-23T21:09:55;4.50;;;1.58;;
3401;SDS011;1714;49.756;8.610;2024-03-23T21:20:29;2.60;;;2.00;;
3401;SDS011;1714;49.756;8.610;2024-03-23T21:31:03;5.22;;;2.03;;
3401;SDS011;1714;49.756;8.610;2024-03-23T21:41:38;3.88;;;2.20;;
3401;SDS011;1714;49.756;8.610;2024-03-23T21:52:11;4.65;;;2.20;;
3401;SDS011;1714;49.756;8.610;2024-03-23T22:02:45;8.23;;;2.28;;
3401;SDS011;1714;49.756;8.610;2024-03-23T22:13:18;5.18;;;2.10;;
3401;SDS011;1714;49.756;8.610;2024-03-23T22:23:52;5.22;;;2.05;;
3401;SDS011;1714;49.756;8.610;2024-03-23T22:34:26;3.22;;;1.75;;
3401;SDS011;1714;49.756;8.610;2024-03-23T22:45:01;5.70;;;1.80;;
3401;SDS011;1714;49.756;8.610;2024-03-23T22:55:37;2.92;;;1.52;;
3401;SDS011;1714;49.756;8.610;2024-03-23T23:06:11;6.18;;;1.98;;
3401;SDS011;1714;49.756;8.610;2024-03-23T23:16:44;9.18;;;1.40;;
3401;SDS011;1714;49.756;8.610;2024-03-23T23:27:18;2.53;;;1.42;;
3401;SDS011;1714;49.756;8.610;2024-03-23T23:37:53;2.25;;;1.48;;
3401;SDS011;1714;49.756;8.610;2024-03-23T23:48:26;3.92;;;1.75;;
3401;SDS011;1714;49.756;8.610;2024-03-23T23:59:00;4.95;;;1.10;;
